Time;durP1;ratioP1;P1;durP2;ratioP2;P2;SDS_P1;SDS_P2;PMS_P1;PMS_P2;Temp;Humidity;BMP_temperature;BMP_pressure;BME280_temperature;BME280_humidity;BME280_pressure;Samples;Min_cycle;Max_cycle;Signal;HPM_P1;HPM_P2
2023/11/29 00:00:17;;;;;;;;;;;;;;;0.24;65.95;97073.00;5012002;28;19932;-72
2023/11/29 00:03:07;;;;;;;;;;;;;;;0.31;65.25;97064.72;5010987;28;19925;-72
2023/11/29 00:05:55;;;;;;;;;;;;;;;0.44;65.65;97080.25;5009022;28;19969;-72
2023/11/29 00:08:44;;;;;;;;;;;;;;;0.33;64.18;97067.94;5010059;28;19929;-72
2023/11/29 00:11:33;;;;;;;;;;;;;;;0.34;64.34;97066.06;5015605;28;20438;-70
2023/11/29 00:14:21;;;;;;;;;;;;;;;0.32;65.16;97068.19;5014625;28;19932;-74
2023/11/29 00:17:13;;;;;;;;;;;;;;;0.15;65.48;97068.44;5000777;28;19925;-72
2023/11/29 00:20:01;;;;;;;;;;;;;;;0.01;65.60;97064.69;5015046;28;19933;-75
2023/11/29 00:22:49;;;;;;;;;;;;;;;0.04;65.43;97062.28;5015414;28;20037;-72
2023/11/29 00:25:37;;;;;;;;;;;;;;;0.14;65.48;97061.50;5016594;28;20083;-75
2023/11/29 00:28:28;;;;;;;;;;;;;;;-0.01;66.10;97060.41;5013321;28;19929;-73
2023/11/29 00:31:20;;;;;;;;;;;;;;;0.28;65.00;97056.47;4993415;28;19948;-70
2023/11/29 00:34:08;;;;;;;;;;;;;;;0.21;64.69;97056.69;5008165;28;20343;-72
2023/11/29 00:36:58;;;;;;;;;;;;;;;-0.02;64.90;97048.13;4993786;28;19933;-71
2023/11/29 00:39:49;;;;;;;;;;;;;;;0.11;65.02;97041.47;4997366;28;19926;-71
2023/11/29 00:42:39;;;;;;;;;;;;;;;0.14;64.63;97046.28;5011153;28;19932;-71
2023/11/29 00:45:29;;;;;;;;;;;;;;;0.13;64.52;97035.88;5011529;28;19926;-72
2023/11/29 00:48:17;;;;;;;;;;;;;;;0.18;64.90;97036.66;5007469;28;19926;-72
2023/11/29 00:51:06;;;;;;;;;;;;;;;0.32;64.47;97036.97;4994891;28;19925;-71
2023/11/29 00:53:54;;;;;;;;;;;;;;;0.18;65.18;97035.88;4996889;28;20449;-72
2023/11/29 00:56:42;;;;;;;;;;;;;;;0.25;64.15;97041.75;5007795;28;21844;-72
2023/11/29 00:59:30;;;;;;;;;;;;;;;0.27;63.41;97044.97;5006018;28;20017;-72
2023/11/29 01:02:20;;;;;;;;;;;;;;;0.07;63.81;97051.09;5008036;28;19926;-73
2023/11/29 01:05:09;;;;;;;;;;;;;;;0.23;64.17;97044.69;5009506;28;20004;-72
2023/11/29 01:07:57;;;;;;;;;;;;;;;-0.01;64.56;97049.72;5007512;28;20423;-72
2023/11/29 01:10:45;;;;;;;;;;;;;;;0.03;63.89;97057.22;5010232;28;20007;-72
2023/11/29 01:13:34;;;;;;;;;;;;;;;0.08;63.68;97051.88;5007308;28;19930;-72
2023/11/29 01:16:22;;;;;;;;;;;;;;;0.08;63.70;97049.22;5009676;28;19941;-72
2023/11/29 01:19:15;;;;;;;;;;;;;;;-0.04;64.06;97046.78;5010814;28;20014;-72
2023/11/29 01:22:04;;;;;;;;;;;;;;;0.02;63.74;97043.06;5006839;28;19992;-72
2023/11/29 01:24:52;;;;;;;;;;;;;;;-0.09;64.76;97042.25;5010453;28;20429;-72
2023/11/29 01:27:42;;;;;;;;;;;;;;;0.08;64.03;97041.19;4991907;28;20537;-71
2023/11/29 01:30:31;;;;;;;;;;;;;;;0.22;63.55;97047.63;4992075;28;20020;-72
2023/11/29 01:33:19;;;;;;;;;;;;;;;0.19;63.79;97040.16;5009077;28;19983;-72
2023/11/29 01:36:09;;;;;;;;;;;;;;;0.25;63.00;97037.19;4993719;28;19933;-72
2023/11/29 01:38:57;;;;;;;;;;;;;;;0.13;63.11;97035.88;5009783;28;19929;-72
2023/11/29 01:41:46;;;;;;;;;;;;;;;0.23;63.42;97027.88;5007176;28;20028;-72
2023/11/29 01:44:34;;;;;;;;;;;;;;;0.04;62.98;97043.59;5007385;28;20007;-72
2023/11/29 01:47:22;;;;;;;;;;;;;;;0.34;62.88;97034.81;5009826;28;19930;-72
2023/11/29 01:50:10;;;;;;;;;;;;;;;0.41;62.78;97035.34;5008142;28;19936;-72
2023/11/29 01:53:03;;;;;;;;;;;;;;;0.43;62.38;97033.22;5008810;28;19936;-72
2023/11/29 01:55:52;;;;;;;;;;;;;;;0.02;63.92;97031.59;4992432;28;19933;-72
2023/11/29 01:58:42;;;;;;;;;;;;;;;-0.57;65.52;97033.56;5008358;28;19926;-71
2023/11/29 02:01:30;;;;;;;;;;;;;;;-0.01;64.54;97041.72;5005733;28;20462;-72
2023/11/29 02:04:18;;;;;;;;;;;;;;;0.20;64.03;97039.06;5009902;28;19925;-72
2023/11/29 02:07:06;;;;;;;;;;;;;;;0.14;64.16;97029.44;5007204;28;19926;-72
2023/11/29 02:09:56;;;;;;;;;;;;;;;0.37;63.80;97023.56;5010879;28;20028;-71
2023/11/29 02:12:44;;;;;;;;;;;;;;;0.45;63.03;97030.28;5005360;28;19929;-72
2023/11/29 02:15:33;;;;;;;;;;;;;;;0.31;63.75;97029.19;5010441;28;20446;-72
2023/11/29 02:18:22;;;;;;;;;;;;;;;0.39;63.06;97005.44;4999213;28;20461;-72
2023/11/29 02:21:10;;;;;;;;;;;;;;;0.65;63.10;97005.41;5003555;28;19991;-71
2023/11/29 02:24:00;;;;;;;;;;;;;;;0.77;62.25;97011.25;5005662;28;20016;-72
2023/11/29 02:26:50;;;;;;;;;;;;;;;0.53;62.47;97019.03;5003605;28;20007;-72
2023/11/29 02:29:39;;;;;;;;;;;;;;;0.50;63.40;97028.41;5002666;28;19926;-72
2023/11/29 02:32:27;;;;;;;;;;;;;;;0.55;63.10;97027.59;5004554;28;20020;-72
2023/11/29 02:35:16;;;;;;;;;;;;;;;0.44;62.66;97009.97;5008369;28;19926;-73
2023/11/29 02:38:04;;;;;;;;;;;;;;;0.45;62.90;97017.72;4995409;28;19926;-72
2023/11/29 02:40:52;;;;;;;;;;;;;;;0.63;62.90;97004.88;5008390;28;19930;-72
2023/11/29 02:43:42;;;;;;;;;;;;;;;0.66;63.15;97015.81;5014321;28;19999;-74
2023/11/29 02:46:30;;;;;;;;;;;;;;;0.76;63.25;97009.66;5007418;28;20303;-72
2023/11/29 02:49:19;;;;;;;;;;;;;;;0.48;62.76;97011.00;4991670;28;19932;-72
2023/11/29 02:52:08;;;;;;;;;;;;;;;0.55;62.57;97013.44;4993691;28;19940;-72
2023/11/29 02:54:56;;;;;;;;;;;;;;;0.69;63.17;97019.81;5007600;28;19979;-72
2023/11/29 02:57:44;;;;;;;;;;;;;;;0.44;63.12;97020.66;5006351;28;19940;-72
2023/11/29 03:00:34;;;;;;;;;;;;;;;0.61;63.66;97017.72;5008641;28;19925;-72
2023/11/29 03:03:25;;;;;;;;;;;;;;;0.44;63.48;97008.09;4995137;28;19977;-72
2023/11/29 03:06:14;;;;;;;;;;;;;;;0.66;63.56;97009.69;4993836;28;20395;-72
2023/11/29 03:09:02;;;;;;;;;;;;;;;0.74;63.15;97011.78;5006138;28;19926;-72
2023/11/29 03:11:50;;;;;;;;;;;;;;;0.69;63.31;97022.50;5008161;28;20063;-73
2023/11/29 03:14:38;;;;;;;;;;;;;;;0.35;63.68;97020.38;4996829;28;20287;-75
2023/11/29 03:17:28;;;;;;;;;;;;;;;0.44;64.67;97024.13;5012304;28;20445;-74
2023/11/29 03:20:16;;;;;;;;;;;;;;;0.62;64.36;97021.97;5014974;28;19938;-74
2023/11/29 03:23:06;;;;;;;;;;;;;;;0.55;63.68;97016.91;4999799;28;20024;-71
2023/11/29 03:25:54;;;;;;;;;;;;;;;0.57;63.73;97017.44;5010997;28;19929;-71
2023/11/29 03:28:41;;;;;;;;;;;;;;;0.36;63.49;97016.63;5007405;28;19930;-71
2023/11/29 03:31:30;;;;;;;;;;;;;;;0.32;63.89;97014.75;5007632;28;20037;-71
2023/11/29 03:34:19;;;;;;;;;;;;;;;0.44;62.97;97010.78;5008748;28;19926;-72
2023/11/29 03:37:07;;;;;;;;;;;;;;;0.45;63.20;97011.56;5003460;28;19936;-71
2023/11/29 03:39:56;;;;;;;;;;;;;;;0.46;62.82;97013.16;5010340;28;19932;-72
2023/11/29 03:42:45;;;;;;;;;;;;;;;0.28;63.61;97017.19;5011035;28;19968;-72
2023/11/29 03:45:33;;;;;;;;;;;;;;;0.23;63.42;97006.50;5008281;28;19925;-71
2023/11/29 03:48:21;;;;;;;;;;;;;;;0.24;63.85;97003.56;5011418;28;19936;-71
2023/11/29 03:51:10;;;;;;;;;;;;;;;0.05;64.71;96997.13;5006242;28;19993;-72
2023/11/29 03:53:59;;;;;;;;;;;;;;;0.09;64.59;96995.53;4997692;28;19941;-72
2023/11/29 03:56:47;;;;;;;;;;;;;;;0.06;64.16;96989.94;4998548;28;19929;-72
2023/11/29 03:59:35;;;;;;;;;;;;;;;-0.04;64.43;96996.88;5006231;28;19926;-72
2023/11/29 04:02:23;;;;;;;;;;;;;;;-0.54;65.10;97000.22;5011909;28;20911;-72
2023/11/29 04:05:11;;;;;;;;;;;;;;;-0.12;64.52;96992.03;5012462;28;19956;-72
2023/11/29 04:08:01;;;;;;;;;;;;;;;-0.08;65.18;96982.44;4990187;28;20008;-72
2023/11/29 04:10:51;;;;;;;;;;;;;;;0.04;64.51;96976.03;5009235;28;19945;-71
2023/11/29 04:13:39;;;;;;;;;;;;;;;-0.21;64.65;96979.47;5006839;28;19949;-72
2023/11/29 04:16:28;;;;;;;;;;;;;;;0.08;64.12;96971.75;5011185;28;19936;-71
2023/11/29 04:19:17;;;;;;;;;;;;;;;-0.07;64.35;96975.22;4995119;28;19983;-72
2023/11/29 04:22:05;;;;;;;;;;;;;;;0.12;63.82;96973.63;5008315;28;19926;-71
2023/11/29 04:24:55;;;;;;;;;;;;;;;0.05;64.31;96974.97;4994749;28;20395;-72
2023/11/29 04:27:43;;;;;;;;;;;;;;;0.13;63.93;96974.44;5005467;28;19978;-71
2023/11/29 04:30:31;;;;;;;;;;;;;;;-0.10;64.35;96979.25;4994214;28;20067;-71
2023/11/29 04:33:20;;;;;;;;;;;;;;;-0.11;64.52;96971.47;5004920;28;20011;-72
2023/11/29 04:36:10;;;;;;;;;;;;;;;-0.09;64.59;96978.16;4994591;28;20268;-71
2023/11/29 04:38:58;;;;;;;;;;;;;;;-0.03;64.65;96960.28;5007563;28;19939;-72
2023/11/29 04:41:47;;;;;;;;;;;;;;;-0.06;64.32;96961.59;4992781;28;20486;-71
2023/11/29 04:44:36;;;;;;;;;;;;;;;0.02;64.80;96962.16;5007434;28;19980;-71
2023/11/29 04:47:25;;;;;;;;;;;;;;;-0.05;63.86;96957.09;4995765;28;20394;-72
2023/11/29 04:50:14;;;;;;;;;;;;;;;0.02;63.80;96956.81;5005741;28;19925;-70
2023/11/29 04:53:03;;;;;;;;;;;;;;;-0.04;64.04;96953.34;5008532;28;19926;-71
2023/11/29 04:55:52;;;;;;;;;;;;;;;-0.07;64.21;96954.66;5010438;28;19937;-71
2023/11/29 04:58:42;;;;;;;;;;;;;;;-0.01;64.54;96950.91;5007948;28;19942;-71
2023/11/29 05:01:31;;;;;;;;;;;;;;;-0.03;64.35;96955.75;5004688;28;19941;-71
2023/11/29 05:04:19;;;;;;;;;;;;;;;-0.14;64.16;96961.34;4996381;28;19955;-71
2023/11/29 05:07:09;;;;;;;;;;;;;;;-0.11;64.60;96956.25;5011631;28;19934;-71
2023/11/29 05:09:58;;;;;;;;;;;;;;;0.03;64.11;96958.41;5010447;28;19930;-71
2023/11/29 05:12:46;;;;;;;;;;;;;;;0.08;63.62;96971.75;5008907;28;19933;-71
2023/11/29 05:15:35;;;;;;;;;;;;;;;-0.23;64.18;96966.41;5006550;28;20430;-70
2023/11/29 05:18:23;;;;;;;;;;;;;;;-0.02;63.34;96968.00;5010415;28;19926;-71
2023/11/29 05:21:17;;;;;;;;;;;;;;;0.10;62.95;96959.72;5008789;28;20534;-71
2023/11/29 05:24:06;;;;;;;;;;;;;;;0.15;62.68;96961.59;5009782;28;20012;-71
2023/11/29 05:26:54;;;;;;;;;;;;;;;0.23;62.71;96964.56;5009954;28;20440;-72
2023/11/29 05:29:42;;;;;;;;;;;;;;;0.27;62.39;96959.50;5006805;28;20060;-72
2023/11/29 05:32:32;;;;;;;;;;;;;;;0.24;62.62;96960.81;4989193;28;20402;-71
2023/11/29 05:35:20;;;;;;;;;;;;;;;0.13;62.60;96961.09;5008115;28;19979;-71
2023/11/29 05:38:09;;;;;;;;;;;;;;;-0.05;63.53;96963.22;5007443;28;19995;-74
2023/11/29 05:40:57;;;;;;;;;;;;;;;0.29;63.58;96968.03;5009017;28;19994;-73
2023/11/29 05:43:45;;;;;;;;;;;;;;;0.26;63.67;96968.53;5009413;28;19932;-72
2023/11/29 05:46:34;;;;;;;;;;;;;;;0.26;63.96;96968.53;4996486;28;19945;-72
2023/11/29 05:49:24;;;;;;;;;;;;;;;0.18;63.49;96966.44;5005629;28;19925;-72
2023/11/29 05:52:12;;;;;;;;;;;;;;;0.35;63.66;96964.28;5010950;28;19932;-73
2023/11/29 05:55:05;;;;;;;;;;;;;;;0.40;62.87;96958.94;4992763;28;19934;-72
2023/11/29 05:57:53;;;;;;;;;;;;;;;0.47;63.23;96962.13;5006381;28;20059;-73
2023/11/29 06:00:43;;;;;;;;;;;;;;;0.41;63.46;96963.19;5005416;28;20016;-73
2023/11/29 06:03:31;;;;;;;;;;;;;;;0.27;63.63;96954.16;5004634;28;20158;-72
2023/11/29 06:06:21;;;;;;;;;;;;;;;0.36;62.80;96957.06;5008576;28;19929;-73
2023/11/29 06:09:11;;;;;;;;;;;;;;;0.32;63.16;96959.50;5009102;28;20445;-72
2023/11/29 06:12:01;;;;;;;;;;;;;;;0.24;63.52;96965.34;5010622;28;20056;-73
2023/11/29 06:14:49;;;;;;;;;;;;;;;0.30;62.99;96953.59;4991286;28;20400;-73
2023/11/29 06:17:38;;;;;;;;;;;;;;;0.37;63.04;96955.97;5011201;28;19936;-73
2023/11/29 06:20:27;;;;;;;;;;;;;;;0.21;63.33;96965.88;5006846;28;20501;-73
2023/11/29 06:23:17;;;;;;;;;;;;;;;0.36;63.46;96963.19;5007228;28;19933;-73
2023/11/29 06:26:11;;;;;;;;;;;;;;;0.15;63.81;96966.94;5010970;28;20411;-73
2023/11/29 06:28:59;;;;;;;;;;;;;;;0.24;63.58;96970.69;5006830;28;19925;-73
2023/11/29 06:31:47;;;;;;;;;;;;;;;0.30;63.88;96966.16;4995732;28;19932;-72
2023/11/29 06:34:35;;;;;;;;;;;;;;;0.37;63.65;96964.78;5011484;28;20008;-73
2023/11/29 06:37:25;;;;;;;;;;;;;;;0.40;63.23;96966.16;5008790;28;19929;-73
2023/11/29 06:40:16;;;;;;;;;;;;;;;0.49;63.42;96959.19;5008031;28;19929;-72
2023/11/29 06:43:04;;;;;;;;;;;;;;;0.60;63.07;96968.78;5007864;28;20315;-72
2023/11/29 06:45:52;;;;;;;;;;;;;;;0.49;63.42;96968.00;5010848;28;19929;-72
2023/11/29 06:48:40;;;;;;;;;;;;;;;0.19;63.99;96963.47;5003984;28;19925;-73
2023/11/29 06:51:29;;;;;;;;;;;;;;;0.29;64.09;96967.22;5009266;28;20406;-73
2023/11/29 06:54:18;;;;;;;;;;;;;;;0.38;64.11;96960.28;5007743;28;19925;-73
2023/11/29 06:57:07;;;;;;;;;;;;;;;0.42;63.94;96954.09;5010022;28;20715;-73
2023/11/29 06:59:55;;;;;;;;;;;;;;;0.55;63.70;96968.81;5005647;28;19953;-73
2023/11/29 07:02:44;;;;;;;;;;;;;;;0.60;63.52;96963.44;5003529;28;19976;-73
2023/11/29 07:05:34;;;;;;;;;;;;;;;0.45;63.43;96966.16;5009201;28;19932;-72
2023/11/29 07:08:22;;;;;;;;;;;;;;;0.54;63.45;96964.53;5009924;28;20022;-71
2023/11/29 07:11:10;;;;;;;;;;;;;;;0.33;63.67;96952.28;5003308;28;20037;-72
2023/11/29 07:14:00;;;;;;;;;;;;;;;0.25;64.53;96956.25;5008710;28;20288;-71
2023/11/29 07:16:48;;;;;;;;;;;;;;;-0.14;65.32;96970.16;5001226;28;19926;-70
2023/11/29 07:19:39;;;;;;;;;;;;;;;-0.13;65.84;96966.41;5007633;28;20016;-70
2023/11/29 07:22:28;;;;;;;;;;;;;;;0.06;65.54;96957.88;5002932;28;19948;-71
2023/11/29 07:25:19;;;;;;;;;;;;;;;0.11;64.96;96958.69;5004427;28;20387;-70
2023/11/29 07:28:07;;;;;;;;;;;;;;;0.41;64.89;96954.38;5004102;28;19956;-71
2023/11/29 07:30:56;;;;;;;;;;;;;;;0.41;64.72;96952.50;5007865;28;19979;-71
2023/11/29 07:33:44;;;;;;;;;;;;;;;0.50;64.06;96950.91;5007239;28;19964;-71
2023/11/29 07:36:32;;;;;;;;;;;;;;;0.51;64.14;96944.47;5008447;28;19929;-71
2023/11/29 07:39:20;;;;;;;;;;;;;;;0.47;64.20;96943.41;5004478;28;19992;-71
2023/11/29 07:42:08;;;;;;;;;;;;;;;0.60;64.35;96942.06;5007472;28;20390;-70
2023/11/29 07:44:56;;;;;;;;;;;;;;;0.67;64.43;96947.13;5005728;28;19973;-71
2023/11/29 07:47:46;;;;;;;;;;;;;;;0.67;64.60;96949.78;5006218;28;19929;-71
2023/11/29 07:50:34;;;;;;;;;;;;;;;0.83;64.25;96951.34;5007087;28;20511;-71
2023/11/29 07:53:22;;;;;;;;;;;;;;;0.91;64.00;96958.84;5005925;28;19929;-71
2023/11/29 07:56:14;;;;;;;;;;;;;;;1.03;63.88;96953.97;4996280;28;20006;-71
2023/11/29 07:59:02;;;;;;;;;;;;;;;1.00;63.59;96951.84;5010193;28;19929;-72
2023/11/29 08:01:52;;;;;;;;;;;;;;;0.99;63.55;96955.59;5004455;28;19941;-72
2023/11/29 08:04:41;;;;;;;;;;;;;;;1.02;63.67;96949.69;4993470;28;19931;-75
2023/11/29 08:07:32;;;;;;;;;;;;;;;1.08;64.19;96952.34;5010533;28;20070;-70
2023/11/29 08:10:21;;;;;;;;;;;;;;;1.05;63.45;96959.84;5010386;28;20406;-70
2023/11/29 08:13:09;;;;;;;;;;;;;;;0.96;63.45;96960.66;5007427;28;19927;-70
2023/11/29 08:15:57;;;;;;;;;;;;;;;0.89;64.56;96958.28;5011324;28;19948;-71
2023/11/29 08:18:48;;;;;;;;;;;;;;;1.04;64.30;96963.59;5009361;28;20478;-70
2023/11/29 08:21:38;;;;;;;;;;;;;;;1.28;63.98;96965.66;5011493;28;19925;-71
2023/11/29 08:24:26;;;;;;;;;;;;;;;1.43;63.13;96957.53;5011911;28;20031;-70
2023/11/29 08:27:15;;;;;;;;;;;;;;;1.46;63.02;96957.00;5009028;28;20406;-71
2023/11/29 08:30:03;;;;;;;;;;;;;;;1.63;62.24;96953.16;5009432;28;20376;-70
2023/11/29 08:32:51;;;;;;;;;;;;;;;1.65;62.72;96951.81;5009264;28;19937;-71
2023/11/29 08:35:41;;;;;;;;;;;;;;;1.16;63.65;96941.06;5011998;28;20311;-71
2023/11/29 08:38:31;;;;;;;;;;;;;;;1.53;63.16;96941.41;4993713;28;20526;-71
2023/11/29 08:41:19;;;;;;;;;;;;;;;1.46;62.59;96948.16;5011008;28;20332;-70
2023/11/29 08:44:07;;;;;;;;;;;;;;;1.38;63.58;96946.06;5009706;28;19925;-71
2023/11/29 08:46:56;;;;;;;;;;;;;;;1.54;62.70;96945.69;5012227;28;19932;-71
2023/11/29 08:49:45;;;;;;;;;;;;;;;1.55;62.89;96941.97;5013773;28;19983;-71
2023/11/29 08:52:33;;;;;;;;;;;;;;;1.62;63.48;96951.56;5004271;28;19948;-71
2023/11/29 08:55:24;;;;;;;;;;;;;;;1.58;63.53;96949.41;5010383;28;20023;-70
2023/11/29 08:58:13;;;;;;;;;;;;;;;1.44;63.68;96951.13;5009039;28;19926;-71
2023/11/29 09:01:03;;;;;;;;;;;;;;;1.34;63.99;96939.66;5010733;28;19963;-70
2023/11/29 09:03:51;;;;;;;;;;;;;;;1.52;63.65;96937.16;4992330;28;19929;-71
2023/11/29 09:06:40;;;;;;;;;;;;;;;1.76;63.35;96941.84;5011146;28;19948;-68
2023/11/29 09:09:29;;;;;;;;;;;;;;;1.81;63.08;96934.56;4994136;28;19929;-71
2023/11/29 09:12:21;;;;;;;;;;;;;;;1.82;62.76;96932.69;5008604;28;20036;-71
2023/11/29 09:15:09;;;;;;;;;;;;;;;1.39;64.72;96931.63;5009178;28;19925;-71
2023/11/29 09:18:00;;;;;;;;;;;;;;;1.57;64.42;96923.72;5006195;28;19925;-71
2023/11/29 09:20:48;;;;;;;;;;;;;;;1.68;63.64;96918.31;5008452;28;19933;-71
2023/11/29 09:23:37;;;;;;;;;;;;;;;1.85;63.99;96913.38;4997016;28;20487;-70
2023/11/29 09:26:25;;;;;;;;;;;;;;;1.91;63.83;96914.91;5010200;28;20350;-71
2023/11/29 09:29:17;;;;;;;;;;;;;;;1.83;63.54;96919.00;5009327;28;20290;-71
2023/11/29 09:32:05;;;;;;;;;;;;;;;1.76;64.06;96912.38;5011044;28;20402;-70
2023/11/29 09:34:53;;;;;;;;;;;;;;;1.87;64.32;96911.22;5005489;28;19929;-71
2023/11/29 09:37:41;;;;;;;;;;;;;;;1.83;64.30;96910.97;5009643;28;19933;-71
2023/11/29 09:40:30;;;;;;;;;;;;;;;1.80;64.15;96906.16;5006543;28;19925;-71
2023/11/29 09:43:18;;;;;;;;;;;;;;;1.99;63.65;96903.63;5009055;28;19984;-71
2023/11/29 09:46:09;;;;;;;;;;;;;;;1.86;64.51;96893.53;5010394;28;19953;-71
2023/11/29 09:48:57;;;;;;;;;;;;;;;2.09;64.12;96897.38;5010204;28;20418;-71
2023/11/29 09:51:46;;;;;;;;;;;;;;;1.93;64.19;96904.75;5004095;28;19987;-71
2023/11/29 09:54:35;;;;;;;;;;;;;;;2.14;64.33;96900.03;5009747;28;20019;-72
2023/11/29 09:57:24;;;;;;;;;;;;;;;2.29;63.07;96893.69;5006615;28;19926;-71
2023/11/29 10:00:14;;;;;;;;;;;;;;;2.42;63.29;96893.06;5008138;28;19934;-71
2023/11/29 10:03:13;;;;;;;;;;;;;;;2.41;62.80;96886.09;5009663;28;19933;-71
2023/11/29 10:06:03;;;;;;;;;;;;;;;2.39;63.14;96885.56;5008335;28;19925;-71
2023/11/29 10:08:52;;;;;;;;;;;;;;;2.50;62.63;96881.69;5007505;28;19987;-71
2023/11/29 10:11:40;;;;;;;;;;;;;;;2.56;63.21;96875.22;5004125;28;19960;-71
2023/11/29 10:14:30;;;;;;;;;;;;;;;2.60;62.61;96865.50;5007690;28;20767;-71
2023/11/29 10:17:18;;;;;;;;;;;;;;;2.64;62.74;96863.06;5010169;28;19929;-71
2023/11/29 10:20:08;;;;;;;;;;;;;;;2.64;63.13;96871.09;5006665;28;19925;-71
2023/11/29 10:22:56;;;;;;;;;;;;;;;2.91;61.85;96870.50;4998641;28;19932;-72
2023/11/29 10:25:45;;;;;;;;;;;;;;;2.76;62.00;96859.97;5011682;28;19968;-72
2023/11/29 10:28:34;;;;;;;;;;;;;;;2.84;62.07;96852.09;5008269;28;19926;-74
2023/11/29 10:31:24;;;;;;;;;;;;;;;2.72;62.58;96857.06;5011795;28;19925;-75
2023/11/29 10:34:14;;;;;;;;;;;;;;;2.50;63.10;96854.88;5009700;28;19925;-71
2023/11/29 10:37:03;;;;;;;;;;;;;;;2.64;63.38;96855.00;5008085;28;19933;-72
2023/11/29 10:39:51;;;;;;;;;;;;;;;2.78;63.03;96855.94;5008181;28;19930;-71
2023/11/29 10:42:40;;;;;;;;;;;;;;;2.79;61.34;96857.53;5009124;28;19925;-71
2023/11/29 10:45:28;;;;;;;;;;;;;;;2.73;62.34;96853.31;5010906;28;19933;-72
2023/11/29 10:48:18;;;;;;;;;;;;;;;3.01;62.43;96859.66;5005751;28;19929;-71
2023/11/29 10:51:06;;;;;;;;;;;;;;;2.98;61.72;96857.53;5000851;28;20413;-71
2023/11/29 10:53:56;;;;;;;;;;;;;;;3.30;61.16;96853.34;5007890;28;19935;-71
2023/11/29 10:56:47;;;;;;;;;;;;;;;2.89;60.97;96861.97;5009892;28;20015;-71
2023/11/29 10:59:39;;;;;;;;;;;;;;;2.96;61.82;96850.88;5001872;28;20016;-71
2023/11/29 11:02:30;;;;;;;;;;;;;;;3.05;62.07;96852.63;5008796;28;19925;-72
2023/11/29 11:05:19;;;;;;;;;;;;;;;2.86;62.22;96846.44;5002866;28;19932;-71
2023/11/29 11:08:07;;;;;;;;;;;;;;;2.75;62.99;96839.59;5005691;28;19925;-71
2023/11/29 11:10:59;;;;;;;;;;;;;;;2.96;62.66;96845.50;5004435;28;20393;-71
2023/11/29 11:13:47;;;;;;;;;;;;;;;2.86;63.68;96841.88;5007393;28;20020;-71
2023/11/29 11:16:36;;;;;;;;;;;;;;;2.88;62.83;96833.56;5011957;28;19925;-71
2023/11/29 11:19:31;;;;;;;;;;;;;;;2.89;62.67;96837.81;5008199;28;19933;-72
2023/11/29 11:22:26;;;;;;;;;;;;;;;3.11;62.58;96823.84;5001441;28;20376;-72
2023/11/29 11:25:23;;;;;;;;;;;;;;;3.35;62.39;96824.56;5005977;28;19981;-74
2023/11/29 11:31:09;;;;;;;;;;;;;;;3.60;62.37;96827.94;5118496;27;20342;-71
2023/11/29 11:34:09;;;;;;;;;;;;;;;3.44;61.49;96830.06;5100310;28;19924;-71
2023/11/29 11:36:57;;;;;;;;;;;;;;;3.40;61.32;96824.47;5104168;28;20296;-71
2023/11/29 11:39:45;;;;;;;;;;;;;;;3.32;62.31;96819.00;5103135;28;19947;-71
2023/11/29 11:42:33;;;;;;;;;;;;;;;3.51;61.52;96827.81;5099354;28;19927;-71
2023/11/29 11:45:24;;;;;;;;;;;;;;;3.41;61.63;96817.25;5122553;28;19931;-71
2023/11/29 11:48:13;;;;;;;;;;;;;;;3.45;61.29;96820.94;5120911;27;19924;-74
2023/11/29 11:51:01;;;;;;;;;;;;;;;3.54;61.20;96813.81;5124226;28;19924;-76
2023/11/29 11:53:50;;;;;;;;;;;;;;;3.32;61.97;96813.63;5132830;28;19935;-72
2023/11/29 11:56:38;;;;;;;;;;;;;;;3.24;61.71;96809.69;5132090;27;19939;-73
2023/11/29 11:59:26;;;;;;;;;;;;;;;3.15;62.05;96804.19;5129946;27;19932;-72
2023/11/29 12:02:14;;;;;;;;;;;;;;;3.05;61.58;96804.34;5137353;27;19990;-72
2023/11/29 12:05:05;;;;;;;;;;;;;;;2.89;62.11;96811.78;5131435;27;19931;-71
2023/11/29 12:07:54;;;;;;;;;;;;;;;3.23;62.54;96791.19;5120985;27;20347;-72
2023/11/29 12:10:42;;;;;;;;;;;;;;;2.76;62.27;96798.28;5130434;27;20373;-74
2023/11/29 12:13:30;;;;;;;;;;;;;;;3.04;63.08;96802.75;5134732;27;19927;-75
2023/11/29 12:16:18;;;;;;;;;;;;;;;2.93;63.20;96795.94;5132157;27;20085;-72
2023/11/29 12:19:07;;;;;;;;;;;;;;;2.92;62.91;96785.47;5134015;27;19924;-72
2023/11/29 12:21:57;;;;;;;;;;;;;;;3.00;62.95;96791.00;5133424;27;20457;-78
2023/11/29 12:24:45;;;;;;;;;;;;;;;3.01;62.64;96784.53;5122554;27;19924;-71
2023/11/29 12:27:35;;;;;;;;;;;;;;;2.85;63.58;96792.00;5119439;27;19924;-71
2023/11/29 12:30:23;;;;;;;;;;;;;;;3.07;63.69;96785.25;5126482;27;20049;-79
2023/11/29 12:33:13;;;;;;;;;;;;;;;3.35;62.94;96786.97;5130657;27;20034;-72
2023/11/29 12:36:03;;;;;;;;;;;;;;;3.31;63.04;96790.56;5135887;27;19923;-71
2023/11/29 12:38:53;;;;;;;;;;;;;;;3.30;63.80;96797.00;5131263;27;19927;-71
2023/11/29 12:41:44;;;;;;;;;;;;;;;3.34;63.01;96785.38;5118830;27;19976;-73
2023/11/29 12:44:33;;;;;;;;;;;;;;;3.09;64.33;96786.56;5118627;27;20028;-71
2023/11/29 12:47:22;;;;;;;;;;;;;;;3.29;63.90;96785.47;5119009;27;19946;-72
2023/11/29 12:50:11;;;;;;;;;;;;;;;3.32;63.54;96784.09;5122236;27;19972;-75
2023/11/29 12:53:00;;;;;;;;;;;;;;;3.25;64.24;96773.72;5109863;28;19924;-72
2023/11/29 12:55:50;;;;;;;;;;;;;;;3.25;63.54;96768.38;5109630;27;19927;-71
2023/11/29 12:58:38;;;;;;;;;;;;;;;3.27;63.08;96762.69;5110865;27;19946;-71
2023/11/29 13:01:26;;;;;;;;;;;;;;;3.24;63.37;96757.91;5114051;28;19923;-71
2023/11/29 13:04:15;;;;;;;;;;;;;;;3.23;64.51;96769.72;5103668;28;20010;-70
2023/11/29 13:07:03;;;;;;;;;;;;;;;3.25;64.65;96767.53;5107767;27;20025;-71
2023/11/29 13:09:52;;;;;;;;;;;;;;;3.47;64.03;96758.91;5122076;27;19923;-71
2023/11/29 13:12:45;;;;;;;;;;;;;;;3.45;64.18;96761.84;5097680;27;19930;-71
2023/11/29 13:15:35;;;;;;;;;;;;;;;3.46;64.39;96757.28;5110703;27;19931;-71
2023/11/29 13:18:23;;;;;;;;;;;;;;;3.47;63.77;96753.53;5097394;28;19924;-71
2023/11/29 13:21:12;;;;;;;;;;;;;;;3.67;63.91;96754.00;5108573;27;20443;-71
2023/11/29 13:24:00;;;;;;;;;;;;;;;3.56;64.20;96757.13;5115667;27;20456;-71
2023/11/29 13:26:48;;;;;;;;;;;;;;;3.48;64.46;96749.75;5104863;28;19930;-71
2023/11/29 13:29:38;;;;;;;;;;;;;;;3.59;64.23;96751.97;5108170;27;20258;-76
2023/11/29 13:32:26;;;;;;;;;;;;;;;3.52;64.22;96758.81;5118479;27;20014;-72
2023/11/29 13:35:18;;;;;;;;;;;;;;;3.60;64.74;96753.56;5118982;27;19958;-72
2023/11/29 13:38:06;;;;;;;;;;;;;;;3.33;64.62;96748.09;5108341;27;19924;-71
2023/11/29 13:40:54;;;;;;;;;;;;;;;3.64;64.87;96748.41;5109328;27;20261;-72
2023/11/29 13:43:42;;;;;;;;;;;;;;;3.80;64.26;96757.78;5109121;27;19930;-72
2023/11/29 13:46:32;;;;;;;;;;;;;;;3.62;64.82;96748.69;5113133;27;19928;-71
2023/11/29 13:49:21;;;;;;;;;;;;;;;3.80;64.68;96757.00;5122118;27;19931;-72
2023/11/29 13:52:09;;;;;;;;;;;;;;;3.73;64.85;96751.19;5118633;27;19923;-72
2023/11/29 13:55:06;;;;;;;;;;;;;;;3.70;64.36;96751.78;5119377;27;19939;-72
2023/11/29 13:57:55;;;;;;;;;;;;;;;3.81;64.26;96753.22;5117273;27;20033;-72
2023/11/29 14:00:43;;;;;;;;;;;;;;;3.15;65.52;96753.19;5103503;27;19924;-71
2023/11/29 14:03:33;;;;;;;;;;;;;;;3.45;65.10;96755.69;5111046;27;19981;-72
2023/11/29 14:06:27;;;;;;;;;;;;;;;3.10;65.76;96753.28;5112793;27;20413;-72
2023/11/29 14:09:17;;;;;;;;;;;;;;;3.12;66.26;96752.97;5106227;27;19924;-71
2023/11/29 14:12:05;;;;;;;;;;;;;;;3.14;66.55;96761.53;5110586;28;20300;-72
2023/11/29 14:14:55;;;;;;;;;;;;;;;3.02;66.08;96755.81;5104616;27;19939;-72
2023/11/29 14:17:43;;;;;;;;;;;;;;;3.01;66.16;96763.06;5109931;28;19931;-71
2023/11/29 14:20:32;;;;;;;;;;;;;;;3.17;65.88;96771.69;5107844;28;19934;-72
2023/11/29 14:23:22;;;;;;;;;;;;;;;3.29;65.78;96768.56;5108129;28;19938;-73
2023/11/29 14:26:11;;;;;;;;;;;;;;;3.48;64.99;96763.97;5104832;28;19928;-72
2023/11/29 14:28:59;;;;;;;;;;;;;;;3.58;65.32;96769.16;5105513;28;19995;-71
2023/11/29 14:31:50;;;;;;;;;;;;;;;3.72;65.18;96771.88;5110870;28;20297;-72
2023/11/29 14:34:38;;;;;;;;;;;;;;;3.56;65.26;96774.03;5105234;28;19932;-72
2023/11/29 14:37:28;;;;;;;;;;;;;;;3.58;64.36;96773.75;5105246;28;19931;-71
2023/11/29 14:40:21;;;;;;;;;;;;;;;3.84;64.36;96777.59;5106416;28;20046;-70
2023/11/29 14:43:09;;;;;;;;;;;;;;;3.80;64.43;96781.16;5107970;28;19923;-70
2023/11/29 14:45:57;;;;;;;;;;;;;;;3.72;64.51;96774.56;5102777;27;19927;-73
2023/11/29 14:48:45;;;;;;;;;;;;;;;3.69;64.83;96788.59;5109242;27;19963;-72
2023/11/29 14:51:33;;;;;;;;;;;;;;;3.76;65.06;96782.84;5110944;27;19927;-72